Time;durP1;ratioP1;P1;durP2;ratioP2;P2;SDS_P1;SDS_P2;PMS_P1;PMS_P2;Temp;Humidity;BMP_temperature;BMP_pressure;BME280_temperature;BME280_humidity;BME280_pressure;Samples;Min_cycle;Max_cycle;Signal;HPM_P1;HPM_P2
2022/01/28 00:01:22;;;;;;;8.53;3.23;;;5.40;99.90;;;;;;5046224;28;20191;-67
2022/01/28 00:03:48;;;;;;;6.37;3.30;;;5.40;99.90;;;;;;5028733;28;20200;-67
2022/01/28 00:06:15;;;;;;;6.53;2.77;;;5.40;99.90;;;;;;5029767;28;20232;-67
2022/01/28 00:08:41;;;;;;;7.93;3.03;;;5.40;99.90;;;;;;5043367;28;20196;-67
2022/01/28 00:11:08;;;;;;;5.50;2.93;;;5.40;99.90;;;;;;5046213;28;20183;-67
2022/01/28 00:13:38;;;;;;;6.00;2.63;;;5.40;99.90;;;;;;5010505;28;20286;-67
2022/01/28 00:18:51;;;;;;;4.80;2.73;;;5.40;99.90;;;;;;5029963;28;20187;-67
2022/01/28 00:40:26;;;;;;;5.40;2.90;;;5.50;99.90;;;;;;5046383;28;20207;-67
2022/01/28 00:42:52;;;;;;;5.50;3.30;;;5.50;99.90;;;;;;5028804;28;20175;-67
2022/01/28 00:45:19;;;;;;;4.33;3.37;;;5.50;99.90;;;;;;5028916;28;20176;-67
2022/01/28 00:47:47;;;;;;;5.87;3.07;;;5.50;99.90;;;;;;5024491;28;20694;-67
2022/01/28 00:50:15;;;;;;;4.00;2.70;;;5.50;99.90;;;;;;5031729;28;20188;-67
2022/01/28 00:52:41;;;;;;;4.93;2.73;;;5.50;99.90;;;;;;5037990;28;20282;-67
2022/01/28 00:55:08;;;;;;;5.07;2.90;;;5.50;99.90;;;;;;5053304;28;20829;-67
2022/01/28 00:57:35;;;;;;;8.47;3.10;;;5.50;99.90;;;;;;5010503;28;20215;-67
2022/01/28 01:00:02;;;;;;;4.10;2.50;;;5.50;99.90;;;;;;5045964;28;20320;-67
2022/01/28 01:02:28;;;;;;;10.20;3.10;;;5.60;99.90;;;;;;5011886;28;20337;-67
2022/01/28 01:04:54;;;;;;;3.50;2.47;;;5.60;99.90;;;;;;5045297;28;20191;-67
2022/01/28 01:07:20;;;;;;;5.30;3.10;;;5.60;99.90;;;;;;5028234;28;20202;-67
2022/01/28 01:09:48;;;;;;;4.53;2.87;;;5.60;99.90;;;;;;5028044;28;20191;-67
2022/01/28 01:12:18;;;;;;;6.00;3.07;;;5.60;99.90;;;;;;5028008;28;20195;-67
2022/01/28 01:14:45;;;;;;;6.50;3.33;;;5.60;99.90;;;;;;5045764;28;20286;-67
2022/01/28 01:17:36;;;;;;;5.90;2.83;;;5.60;99.90;;;;;;5045386;28;20326;-67
2022/01/28 01:22:40;;;;;;;3.30;2.93;;;5.50;99.90;;;;;;5046148;28;20183;-67
2022/01/28 01:25:17;;;;;;;3.97;3.10;;;5.50;99.90;;;;;;5027953;28;21002;-67
2022/01/28 01:27:48;;;;;;;4.60;3.07;;;5.50;99.90;;;;;;5027174;28;20195;-67
2022/01/28 01:30:17;;;;;;;5.47;3.30;;;5.50;99.90;;;;;;5056818;28;20194;-67
2022/01/28 01:32:43;;;;;;;5.53;3.10;;;5.50;99.90;;;;;;5046403;28;20279;-67
2022/01/28 01:35:09;;;;;;;4.17;3.10;;;5.60;99.90;;;;;;5027923;28;20195;-67
2022/01/28 01:37:36;;;;;;;6.07;3.10;;;5.60;99.90;;;;;;5040893;28;20750;-67
2022/01/28 01:40:03;;;;;;;5.97;2.97;;;5.60;99.90;;;;;;5027892;28;20298;-67
2022/01/28 01:45:46;;;;;;;5.97;3.17;;;5.50;99.90;;;;;;5027207;28;20237;-67
2022/01/28 01:53:33;;;;;;;7.33;3.30;;;5.60;99.90;;;;;;5026807;28;20844;-67
2022/01/28 01:56:00;;;;;;;5.50;3.57;;;5.60;99.90;;;;;;5046147;28;20199;-67
2022/01/28 01:58:31;;;;;;;12.03;3.33;;;5.60;99.90;;;;;;5042976;28;20210;-67
2022/01/28 02:01:02;;;;;;;7.57;3.37;;;5.60;99.90;;;;;;5027412;28;20265;-67
2022/01/28 02:03:30;;;;;;;6.77;3.50;;;5.60;99.90;;;;;;5046251;28;20317;-67
2022/01/28 02:05:58;;;;;;;4.63;2.90;;;5.70;99.90;;;;;;5015117;28;20206;-67
2022/01/28 02:08:32;;;;;;;3.70;2.63;;;5.70;99.90;;;;;;5052878;28;20195;-67
2022/01/28 02:11:00;;;;;;;3.53;3.10;;;5.70;99.90;;;;;;5027725;28;20723;-67
2022/01/28 02:13:29;;;;;;;4.33;2.60;;;5.70;99.90;;;;;;5027669;28;20202;-67
2022/01/28 02:16:00;;;;;;;4.37;2.80;;;5.70;99.90;;;;;;5027943;28;20861;-67
2022/01/28 02:18:26;;;;;;;3.27;2.97;;;5.70;99.90;;;;;;5049593;28;20209;-67
2022/01/28 02:20:56;;;;;;;4.87;3.10;;;5.70;99.90;;;;;;5011693;28;20238;-67
2022/01/28 02:23:23;;;;;;;5.70;3.03;;;5.70;99.90;;;;;;5028584;28;20268;-67
2022/01/28 02:25:50;;;;;;;4.87;3.30;;;5.70;99.90;;;;;;5048674;28;20184;-67
2022/01/28 02:28:20;;;;;;;5.13;3.13;;;5.70;99.90;;;;;;5030498;28;20198;-67
2022/01/28 02:30:46;;;;;;;5.73;2.70;;;5.70;99.90;;;;;;5035828;28;20245;-67
2022/01/28 02:48:28;;;;;;;8.50;3.30;;;5.80;99.90;;;;;;5042701;28;20644;-67
2022/01/28 02:51:15;;;;;;;5.27;3.30;;;5.80;99.90;;;;;;5046999;28;20239;-67
2022/01/28 02:56:22;;;;;;;4.43;3.07;;;5.80;99.90;;;;;;5019399;28;20285;-67
2022/01/28 02:58:49;;;;;;;3.80;2.70;;;5.80;99.90;;;;;;5029158;28;20203;-67
2022/01/28 03:01:18;;;;;;;3.30;2.77;;;5.80;99.90;;;;;;5029151;28;20203;-67
2022/01/28 03:07:27;;;;;;;4.77;2.90;;;5.80;99.90;;;;;;5036780;28;20198;-67
2022/01/28 03:12:48;;;;;;;4.30;3.00;;;5.80;99.90;;;;;;5048997;28;20182;-67
2022/01/28 03:15:20;;;;;;;4.10;3.00;;;5.80;99.90;;;;;;5030505;28;20587;-67
2022/01/28 03:17:55;;;;;;;7.73;3.30;;;5.80;99.90;;;;;;5047649;28;20627;-67
2022/01/28 03:22:47;;;;;;;4.33;2.77;;;5.80;99.90;;;;;;5067266;28;20235;-67
2022/01/28 03:25:15;;;;;;;10.13;3.20;;;5.80;99.90;;;;;;5048647;28;20219;-67
2022/01/28 03:28:00;;;;;;;4.67;2.53;;;5.80;99.90;;;;;;5029223;28;20786;-67
2022/01/28 03:30:27;;;;;;;5.17;2.60;;;5.80;99.90;;;;;;5046797;28;20214;-67
2022/01/28 03:32:53;;;;;;;4.23;2.73;;;5.80;99.90;;;;;;5063400;28;20699;-67
2022/01/28 03:35:20;;;;;;;9.53;3.17;;;5.80;99.90;;;;;;5040048;28;20198;-67
2022/01/28 03:37:47;;;;;;;3.00;2.60;;;5.80;99.90;;;;;;5056599;28;20215;-67
2022/01/28 03:40:18;;;;;;;3.97;2.57;;;5.80;99.90;;;;;;5050086;28;20663;-67
2022/01/28 03:42:44;;;;;;;6.20;3.10;;;5.80;99.90;;;;;;5053405;28;20222;-67
2022/01/28 03:45:10;;;;;;;6.57;3.13;;;5.80;99.90;;;;;;5033494;28;20195;-67
2022/01/28 03:47:36;;;;;;;2.50;2.30;;;5.90;99.90;;;;;;5045554;28;20226;-67
2022/01/28 03:50:03;;;;;;;3.23;2.70;;;5.90;99.90;;;;;;5051972;28;20189;-67
2022/01/28 03:52:30;;;;;;;3.30;2.53;;;5.90;99.90;;;;;;5025258;28;20188;-67
2022/01/28 03:54:56;;;;;;;3.13;2.67;;;5.90;99.90;;;;;;5047746;28;20257;-67
2022/01/28 03:57:22;;;;;;;3.50;2.60;;;5.90;99.90;;;;;;5027881;28;20289;-67
2022/01/28 03:59:48;;;;;;;6.27;2.30;;;5.90;99.90;;;;;;5040974;28;20232;-67
2022/01/28 04:02:19;;;;;;;3.80;2.60;;;5.90;99.90;;;;;;5048076;28;20469;-67
2022/01/28 04:12:55;;;;;;;5.63;2.47;;;6.00;99.90;;;;;;5049752;28;20182;-67
2022/01/28 04:15:50;;;;;;;5.87;2.60;;;6.00;99.90;;;;;;5047455;28;20199;-67
2022/01/28 04:18:16;;;;;;;6.67;2.40;;;6.00;99.90;;;;;;5059543;28;20194;-67
2022/01/28 04:20:42;;;;;;;4.33;2.60;;;6.00;99.90;;;;;;5034635;28;20316;-67
2022/01/28 04:23:08;;;;;;;5.47;2.33;;;6.00;99.90;;;;;;5013993;28;20187;-67
2022/01/28 04:25:35;;;;;;;3.87;2.77;;;6.00;99.90;;;;;;5050171;28;20913;-67
2022/01/28 04:28:01;;;;;;;6.03;2.60;;;6.00;99.90;;;;;;5064313;28;20694;-66
2022/01/28 04:30:27;;;;;;;5.23;2.40;;;6.00;99.90;;;;;;5024100;28;20288;-67
2022/01/28 04:32:53;;;;;;;5.63;2.43;;;6.00;99.90;;;;;;5043887;28;20286;-67
2022/01/28 04:35:19;;;;;;;4.90;2.60;;;6.00;99.90;;;;;;5028139;28;20195;-67
2022/01/28 04:40:23;;;;;;;7.10;3.10;;;6.00;99.90;;;;;;5029807;28;20288;-67
2022/01/28 04:45:31;;;;;;;5.00;2.70;;;6.00;99.90;;;;;;5050234;28;20183;-67
2022/01/28 04:56:06;;;;;;;5.93;3.50;;;5.90;99.90;;;;;;5047908;28;20199;-67
2022/01/28 05:04:35;;;;;;;4.80;3.17;;;6.00;99.90;;;;;;4990669;28;20987;-67
2022/01/28 05:15:13;;;;;;;9.83;3.60;;;5.90;99.90;;;;;;5046630;28;20184;-67
2022/01/28 05:28:22;;;;;;;6.57;4.00;;;5.80;99.90;;;;;;5050612;28;20183;-67
2022/01/28 05:30:48;;;;;;;5.53;3.90;;;5.80;99.90;;;;;;5052180;28;20675;-67
2022/01/28 05:33:15;;;;;;;7.57;4.80;;;5.80;99.90;;;;;;5043769;28;20203;-67
2022/01/28 05:35:41;;;;;;;9.07;5.20;;;5.80;99.90;;;;;;5044015;28;20192;-67
2022/01/28 05:38:07;;;;;;;7.17;4.60;;;5.80;99.90;;;;;;5042757;28;20688;-67
2022/01/28 05:40:35;;;;;;;10.37;5.00;;;5.80;99.90;;;;;;5026682;28;20219;-67
2022/01/28 05:43:01;;;;;;;8.13;4.83;;;5.80;99.90;;;;;;5044805;28;20191;-67
2022/01/28 05:45:27;;;;;;;10.23;5.27;;;5.80;99.90;;;;;;5030407;28;20186;-67
2022/01/28 05:47:54;;;;;;;6.93;4.63;;;5.80;99.90;;;;;;5065186;28;20213;-67
2022/01/28 05:50:20;;;;;;;11.03;4.27;;;5.80;99.90;;;;;;5057240;28;20264;-67
2022/01/28 05:52:46;;;;;;;7.03;4.67;;;5.80;99.90;;;;;;5043555;28;20780;-67
2022/01/28 05:55:13;;;;;;;5.90;3.70;;;5.80;99.90;;;;;;5044146;28;20195;-67
2022/01/28 05:57:39;;;;;;;5.00;4.00;;;5.80;99.90;;;;;;5028005;28;20192;-67
2022/01/28 06:00:06;;;;;;;4.50;3.93;;;5.80;99.90;;;;;;5065588;28;20214;-67
2022/01/28 06:02:32;;;;;;;5.30;4.30;;;5.80;99.90;;;;;;5036051;28;20199;-67
2022/01/28 06:04:59;;;;;;;8.03;4.40;;;5.90;99.90;;;;;;5043881;28;20333;-67
2022/01/28 06:07:25;;;;;;;7.27;4.50;;;5.90;99.90;;;;;;5047543;28;20187;-67
2022/01/28 06:09:51;;;;;;;5.90;3.93;;;5.80;99.90;;;;;;5031095;28;20214;-67
2022/01/28 06:12:21;;;;;;;3.87;3.40;;;5.80;99.90;;;;;;5053327;28;20218;-67
2022/01/28 06:14:47;;;;;;;5.77;3.83;;;5.80;99.90;;;;;;5046498;28;20203;-67
2022/01/28 06:17:13;;;;;;;4.90;3.70;;;5.80;99.90;;;;;;5026967;28;20747;-67
2022/01/28 06:19:39;;;;;;;5.07;3.97;;;5.80;99.90;;;;;;5045883;28;20235;-67
2022/01/28 06:22:06;;;;;;;5.83;4.33;;;5.80;99.90;;;;;;5042733;28;20202;-67
2022/01/28 06:24:32;;;;;;;6.13;3.90;;;5.80;99.90;;;;;;5045119;28;20211;-67
2022/01/28 06:26:58;;;;;;;4.27;3.87;;;5.80;99.90;;;;;;5027006;28;20513;-67
2022/01/28 06:29:25;;;;;;;6.27;4.27;;;5.80;99.90;;;;;;5027405;28;20184;-67
2022/01/28 06:31:51;;;;;;;5.23;3.83;;;5.80;99.90;;;;;;5026579;28;20203;-67
2022/01/28 06:34:17;;;;;;;5.53;4.03;;;5.80;99.90;;;;;;5049632;28;20202;-67
2022/01/28 06:36:43;;;;;;;5.43;4.27;;;5.90;99.90;;;;;;5047154;28;20632;-67
2022/01/28 06:39:09;;;;;;;5.73;4.20;;;5.90;99.90;;;;;;5046883;28;20242;-67
2022/01/28 06:41:36;;;;;;;4.30;3.53;;;6.00;99.90;;;;;;5053393;28;20533;-67
2022/01/28 06:44:03;;;;;;;4.23;3.80;;;6.00;99.90;;;;;;5027511;28;20195;-67
2022/01/28 06:46:29;;;;;;;4.70;3.50;;;6.00;99.90;;;;;;5026992;28;20849;-67
2022/01/28 06:48:55;;;;;;;11.07;3.43;;;6.00;99.90;;;;;;5044909;28;20222;-67
2022/01/28 06:51:22;;;;;;;5.13;4.00;;;6.10;99.90;;;;;;5043037;28;20194;-67
2022/01/28 06:53:48;;;;;;;4.20;3.43;;;6.10;99.90;;;;;;5043917;28;20194;-67
2022/01/28 06:56:14;;;;;;;7.87;4.07;;;6.20;99.90;;;;;;5033136;28;20184;-67
2022/01/28 06:58:41;;;;;;;5.80;3.60;;;6.20;99.90;;;;;;5044475;28;20222;-67
2022/01/28 07:01:09;;;;;;;7.97;3.70;;;6.30;99.90;;;;;;5044758;28;20716;-67
2022/01/28 07:03:35;;;;;;;5.10;3.97;;;6.40;99.90;;;;;;5009414;28;20199;-67
2022/01/28 07:06:02;;;;;;;4.27;3.13;;;6.40;99.90;;;;;;5025585;28;20192;-67
2022/01/28 07:08:28;;;;;;;4.93;3.20;;;6.40;99.90;;;;;;5044067;28;20207;-67
2022/01/28 07:10:54;;;;;;;3.17;2.80;;;6.40;99.90;;;;;;5013049;28;20627;-67
2022/01/28 07:13:21;;;;;;;8.30;3.00;;;6.40;99.90;;;;;;5030427;28;20186;-67
2022/01/28 07:15:48;;;;;;;3.80;2.73;;;6.50;99.90;;;;;;5028190;28;20287;-67
2022/01/28 07:18:14;;;;;;;4.13;2.77;;;6.50;99.90;;;;;;5048149;28;20201;-67
2022/01/28 07:20:40;;;;;;;5.33;2.90;;;6.50;99.90;;;;;;5047573;28;20211;-67
2022/01/28 07:23:07;;;;;;;5.03;2.60;;;6.60;99.90;;;;;;5048093;28;20229;-67
2022/01/28 07:25:33;;;;;;;4.53;2.70;;;6.70;99.90;;;;;;5028482;28;20187;-67
2022/01/28 07:27:59;;;;;;;5.10;3.00;;;6.80;99.90;;;;;;5046391;28;20214;-67
2022/01/28 07:30:26;;;;;;;4.93;2.90;;;6.90;99.90;;;;;;5046543;28;20861;-67
2022/01/28 07:32:52;;;;;;;3.93;2.73;;;7.20;99.90;;;;;;5048219;28;20377;-67
2022/01/28 07:35:19;;;;;;;7.33;2.70;;;7.20;99.90;;;;;;5028952;28;20191;-67
2022/01/28 07:37:45;;;;;;;3.47;2.27;;;7.20;99.90;;;;;;5046353;28;20227;-67
2022/01/28 07:40:12;;;;;;;4.00;2.80;;;7.20;99.90;;;;;;5048377;28;20222;-67
2022/01/28 07:42:39;;;;;;;3.13;2.83;;;7.20;99.90;;;;;;5047804;28;20191;-67
2022/01/28 07:45:10;;;;;;;5.37;2.70;;;7.20;99.90;;;;;;5046988;28;20716;-67
2022/01/28 07:47:37;;;;;;;3.70;2.60;;;7.30;99.90;;;;;;5028435;28;21033;-67
2022/01/28 07:50:09;;;;;;;4.47;2.40;;;7.40;99.90;;;;;;5029516;28;20199;-67
2022/01/28 07:52:36;;;;;;;6.27;2.60;;;7.50;99.90;;;;;;5047737;28;20603;-67
2022/01/28 07:55:05;;;;;;;6.00;2.60;;;7.60;99.90;;;;;;5046613;28;20183;-67
2022/01/28 07:57:31;;;;;;;5.63;2.60;;;7.70;99.90;;;;;;5049125;28;20223;-67
2022/01/28 07:59:58;;;;;;;6.13;2.20;;;7.70;99.90;;;;;;5051244;28;20216;-67
2022/01/28 08:02:27;;;;;;;4.60;2.27;;;7.80;99.90;;;;;;5042567;28;20196;-67
2022/01/28 08:04:53;;;;;;;4.00;3.17;;;7.90;99.90;;;;;;5028755;28;20314;-67
2022/01/28 08:07:21;;;;;;;7.97;2.30;;;7.90;99.90;;;;;;5048579;28;20257;-67
2022/01/28 08:09:48;;;;;;;5.57;2.17;;;7.90;99.90;;;;;;5057558;28;20199;-67
2022/01/28 08:12:15;;;;;;;3.63;2.20;;;7.90;99.90;;;;;;5047406;28;20187;-67
2022/01/28 08:14:41;;;;;;;4.93;2.57;;;7.90;99.90;;;;;;5046289;28;20195;-67
2022/01/28 08:17:07;;;;;;;3.10;2.20;;;8.00;99.90;;;;;;5045779;28;20187;-67
2022/01/28 08:19:33;;;;;;;3.63;2.50;;;8.10;99.90;;;;;;5060083;28;20207;-67
2022/01/28 08:21:59;;;;;;;6.30;2.20;;;8.20;99.90;;;;;;5046990;28;20238;-67
2022/01/28 08:24:26;;;;;;;5.40;2.60;;;8.10;99.90;;;;;;5039390;28;20198;-67
2022/01/28 08:26:53;;;;;;;3.40;2.20;;;8.10;99.90;;;;;;5012128;28;20245;-67
2022/01/28 08:29:20;;;;;;;4.53;2.37;;;8.00;99.90;;;;;;5046288;28;20198;-67
2022/01/28 08:31:47;;;;;;;4.37;2.27;;;8.00;99.90;;;;;;5027898;28;20194;-67
2022/01/28 08:34:13;;;;;;;3.40;2.07;;;8.10;99.90;;;;;;5035344;28;20196;-67
2022/01/28 08:36:40;;;;;;;6.17;2.10;;;8.10;99.90;;;;;;5037856;28;20258;-67
2022/01/28 08:39:09;;;;;;;5.20;1.90;;;8.20;99.90;;;;;;5022027;28;20315;-67
2022/01/28 08:41:39;;;;;;;3.27;2.10;;;8.20;99.90;;;;;;5044485;28;20603;-68
2022/01/28 08:44:06;;;;;;;4.23;2.03;;;8.30;99.90;;;;;;5045028;28;20186;-67
2022/01/28 08:46:33;;;;;;;2.93;2.10;;;8.30;99.90;;;;;;5040752;28;20211;-68
2022/01/28 08:48:59;;;;;;;5.57;2.70;;;8.30;99.90;;;;;;5039422;28;20752;-68
2022/01/28 08:51:27;;;;;;;4.50;2.40;;;8.40;99.90;;;;;;5025680;28;20184;-68
2022/01/28 08:53:54;;;;;;;4.53;2.27;;;8.40;99.90;;;;;;5040849;28;20286;-68
2022/01/28 08:56:21;;;;;;;5.33;2.30;;;8.50;99.90;;;;;;5027527;28;20270;-68
2022/01/28 08:58:48;;;;;;;2.67;2.00;;;8.50;99.90;;;;;;5044064;28;20771;-68
2022/01/28 09:01:16;;;;;;;3.37;2.33;;;8.50;99.90;;;;;;5041293;28;21246;-68
2022/01/28 09:03:45;;;;;;;2.63;2.13;;;8.60;99.90;;;;;;5037837;28;20253;-68
2022/01/28 09:06:12;;;;;;;4.83;1.90;;;8.50;99.90;;;;;;5010281;28;20668;-68
2022/01/28 09:08:40;;;;;;;3.50;1.60;;;8.60;99.90;;;;;;5038037;28;20200;-68
2022/01/28 09:14:05;;;;;;;5.50;2.20;;;8.60;99.90;;;;;;5007791;28;20272;-68
2022/01/28 09:16:31;;;;;;;3.80;1.70;;;8.60;99.90;;;;;;5034125;28;20195;-68
2022/01/28 09:19:00;;;;;;;3.33;1.70;;;8.70;99.90;;;;;;5038091;28;20584;-68
2022/01/28 09:21:26;;;;;;;4.23;1.80;;;8.70;99.90;;;;;;5018471;28;20870;-68
2022/01/28 09:23:53;;;;;;;4.00;1.43;;;8.70;99.90;;;;;;5023911;28;20189;-68
2022/01/28 09:26:21;;;;;;;4.27;1.63;;;8.60;99.90;;;;;;5041934;28;20184;-68
2022/01/28 09:28:48;;;;;;;2.13;1.60;;;8.60;99.90;;;;;;5041877;28;20652;-68
2022/01/28 09:31:15;;;;;;;2.43;1.60;;;8.60;99.90;;;;;;5044342;28;20206;-68
2022/01/28 09:33:43;;;;;;;2.57;1.60;;;8.60;99.90;;;;;;5027482;28;20260;-68
2022/01/28 09:36:10;;;;;;;4.53;1.83;;;8.60;99.90;;;;;;5010451;28;20191;-68
2022/01/28 09:38:37;;;;;;;5.07;1.83;;;8.60;99.90;;;;;;5038476;28;20218;-68
2022/01/28 09:41:07;;;;;;;4.23;1.60;;;8.60;99.90;;;;;;5007764;28;20206;-68
2022/01/28 09:43:34;;;;;;;3.63;2.03;;;8.50;99.90;;;;;;5034568;28;20184;-67
2022/01/28 09:46:03;;;;;;;2.83;2.10;;;8.40;99.90;;;;;;5042430;28;20785;-68
2022/01/28 09:48:32;;;;;;;4.83;1.70;;;8.40;99.90;;;;;;5022950;28;20192;-68
2022/01/28 09:51:03;;;;;;;3.87;1.80;;;8.30;99.90;;;;;;5042090;28;20198;-67
2022/01/28 09:53:31;;;;;;;3.27;1.63;;;8.20;99.90;;;;;;5023153;28;20260;-67
2022/01/28 09:55:58;;;;;;;4.67;1.93;;;8.20;99.90;;;;;;5026421;28;20659;-68
2022/01/28 09:58:25;;;;;;;2.90;2.10;;;8.20;99.90;;;;;;5037209;28;20190;-68
2022/01/28 10:00:52;;;;;;;2.73;1.87;;;8.30;99.90;;;;;;5040138;28;20814;-68
2022/01/28 10:03:20;;;;;;;6.87;2.07;;;8.40;99.90;;;;;;5009442;28;20222;-68
2022/01/28 10:05:50;;;;;;;2.10;1.80;;;8.30;99.90;;;;;;5040914;28;20250;-68
2022/01/28 10:08:26;;;;;;;4.73;2.20;;;8.40;99.90;;;;;;5016325;28;20232;-68
2022/01/28 10:11:11;;;;;;;5.67;1.60;;;8.40;99.90;;;;;;5042126;28;20187;-68
2022/01/28 10:16:30;;;;;;;3.93;2.10;;;8.40;99.90;;;;;;5026247;28;20320;-68
2022/01/28 10:19:04;;;;;;;7.13;2.40;;;8.40;99.90;;;;;;5040374;28;20195;-68
2022/01/28 10:21:39;;;;;;;2.57;2.17;;;8.50;99.90;;;;;;5026250;28;20187;-68
2022/01/28 10:24:18;;;;;;;4.30;2.30;;;8.50;99.90;;;;;;5043155;28;20672;-68
2022/01/28 10:27:05;;;;;;;2.97;1.80;;;8.50;99.90;;;;;;5040369;28;20194;-68
2022/01/28 10:29:41;;;;;;;3.17;2.00;;;8.50;99.90;;;;;;5023557;28;20252;-68
2022/01/28 10:32:11;;;;;;;3.80;1.77;;;8.40;99.90;;;;;;5021699;28;20245;-68
2022/01/28 10:34:47;;;;;;;2.10;1.77;;;8.40;99.90;;;;;;5024251;28;20183;-68
2022/01/28 10:37:28;;;;;;;6.43;2.03;;;8.40;99.90;;;;;;5009160;28;20202;-68
2022/01/28 10:40:09;;;;;;;2.63;1.80;;;8.40;99.90;;;;;;5036307;28;20632;-67
2022/01/28 10:42:39;;;;;;;4.63;2.40;;;8.30;99.90;;;;;;5043294;28;20214;-67
2022/01/28 10:45:14;;;;;;;5.00;2.30;;;8.30;99.90;;;;;;5029785;28;20191;-68
2022/01/28 10:47:50;;;;;;;4.23;2.83;;;8.30;99.90;;;;;;5039547;28;20238;-68
2022/01/28 10:50:30;;;;;;;7.47;2.10;;;8.30;99.90;;;;;;5050200;28;20188;-67
2022/01/28 10:53:06;;;;;;;3.60;2.23;;;8.30;99.90;;;;;;5049474;28;20615;-67
2022/01/28 10:55:38;;;;;;;2.80;2.13;;;8.60;99.90;;;;;;5027243;28;20252;-67
2022/01/28 10:58:11;;;;;;;2.93;2.10;;;9.00;99.90;;;;;;5046162;28;20195;-68
2022/01/28 11:00:45;;;;;;;4.50;2.40;;;8.90;99.90;;;;;;5002476;28;20215;-67
2022/01/28 11:03:16;;;;;;;3.83;2.17;;;8.80;99.90;;;;;;5029341;28;20195;-68
2022/01/28 11:05:44;;;;;;;3.57;1.93;;;8.70;99.90;;;;;;5027875;28;20233;-68
2022/01/28 11:08:13;;;;;;;2.40;2.00;;;8.70;99.90;;;;;;5012501;28;20184;-67
2022/01/28 11:10:42;;;;;;;4.73;2.17;;;8.70;99.90;;;;;;5045684;28;20303;-67
2022/01/28 11:13:09;;;;;;;3.57;2.00;;;8.70;99.90;;;;;;5046843;28;20187;-67
2022/01/28 11:15:39;;;;;;;4.23;2.07;;;8.70;99.90;;;;;;5026351;28;20195;-68
2022/01/28 11:18:09;;;;;;;6.03;2.80;;;8.70;99.90;;;;;;5021881;28;20195;-68
2022/01/28 11:21:27;;;;;;;6.53;2.13;;;8.70;99.90;;;;;;5024578;28;20204;-67
2022/01/28 11:24:12;;;;;;;3.60;2.10;;;8.70;99.90;;;;;;5040195;28;20203;-67
2022/01/28 11:27:00;;;;;;;5.17;2.23;;;8.70;99.90;;;;;;5022062;28;20191;-67
2022/01/28 11:29:28;;;;;;;4.10;2.30;;;8.70;99.90;;;;;;5021835;28;20187;-68
2022/01/28 11:32:17;;;;;;;7.10;2.47;;;8.70;99.90;;;;;;5024489;28;20264;-67
2022/01/28 11:35:08;;;;;;;4.70;2.43;;;8.70;99.90;;;;;;5026224;28;20953;-68
2022/01/28 11:37:35;;;;;;;5.67;2.70;;;8.60;99.90;;;;;;5021685;28;20212;-67
2022/01/28 11:40:12;;;;;;;4.90;2.70;;;8.60;99.90;;;;;;5054732;28;20572;-67
2022/01/28 11:42:38;;;;;;;8.57;2.33;;;8.60;99.90;;;;;;5044318;28;20245;-67
2022/01/28 11:45:08;;;;;;;4.80;2.23;;;8.60;99.90;;;;;;5045819;28;20195;-67
2022/01/28 11:47:53;;;;;;;6.03;2.37;;;8.60;99.90;;;;;;5043292;28;20197;-67
2022/01/28 11:50:24;;;;;;;5.87;2.33;;;8.50;99.90;;;;;;5022694;28;20199;-67
2022/01/28 11:52:54;;;;;;;4.73;2.67;;;8.50;99.90;;;;;;5028173;28;20194;-67
2022/01/28 11:55:21;;;;;;;2.50;1.90;;;8.50;99.90;;;;;;5045898;28;20203;-67
2022/01/28 11:58:14;;;;;;;4.97;2.20;;;8.40;99.90;;;;;;4996875;28;20222;-67
2022/01/28 12:00:50;;;;;;;4.87;2.10;;;8.40;99.90;;;;;;5035538;28;20199;-67
2022/01/28 12:03:30;;;;;;;3.10;2.10;;;8.40;99.90;;;;;;5028463;28;20714;-67
2022/01/28 12:06:18;;;;;;;3.50;2.07;;;8.40;99.90;;;;;;5038610;28;20183;-67
2022/01/28 12:08:46;;;;;;;7.93;2.43;;;8.40;99.90;;;;;;5010988;28;20186;-67
2022/01/28 12:11:13;;;;;;;5.60;2.40;;;8.40;99.90;;;;;;5026903;28;20681;-67
2022/01/28 12:14:04;;;;;;;5.13;2.93;;;8.40;99.90;;;;;;5024220;28;20183;-67
2022/01/28 12:16:40;;;;;;;9.97;2.70;;;8.40;99.90;;;;;;5040892;28;20183;-67
2022/01/28 12:19:17;;;;;;;4.37;2.30;;;8.40;99.90;;;;;;5045196;28;20195;-67
2022/01/28 12:22:09;;;;;;;4.37;2.30;;;8.40;99.90;;;;;;5024085;28;20187;-67
2022/01/28 12:24:37;;;;;;;6.30;2.87;;;8.40;99.90;;;;;;5047578;28;20320;-67
2022/01/28 12:27:13;;;;;;;4.43;2.53;;;8.50;99.90;;;;;;5041096;28;20192;-67
2022/01/28 12:29:50;;;;;;;6.60;2.07;;;8.60;99.90;;;;;;5043543;28;20232;-67
2022/01/28 12:32:24;;;;;;;4.13;1.83;;;8.80;99.90;;;;;;5021858;28;20270;-67
2022/01/28 12:34:54;;;;;;;4.10;2.10;;;9.00;99.90;;;;;;5026321;28;20416;-67
2022/01/28 12:37:23;;;;;;;3.67;1.80;;;9.10;99.90;;;;;;5043075;28;20207;-67
2022/01/28 12:40:03;;;;;;;2.50;1.60;;;9.10;99.90;;;;;;5041846;28;20715;-66
2022/01/28 12:42:33;;;;;;;5.40;2.33;;;9.00;99.90;;;;;;5051201;28;20777;-66
2022/01/28 12:45:01;;;;;;;3.40;1.97;;;9.00;99.90;;;;;;5044082;28;20187;-67
2022/01/28 12:47:34;;;;;;;2.90;1.87;;;8.90;99.90;;;;;;5043782;28;20199;-67
2022/01/28 12:50:04;;;;;;;5.47;2.13;;;8.90;99.90;;;;;;5042250;28;20196;-67
2022/01/28 12:52:35;;;;;;;6.50;2.00;;;8.90;99.90;;;;;;5025553;28;20191;-67
2022/01/28 12:55:03;;;;;;;3.17;1.60;;;8.90;99.90;;;;;;5044727;28;20244;-67
2022/01/28 12:57:30;;;;;;;4.80;1.80;;;9.00;99.90;;;;;;5042198;28;20268;-67
2022/01/28 12:59:57;;;;;;;4.47;1.80;;;9.00;99.90;;;;;;5043197;28;20212;-67
2022/01/28 13:02:24;;;;;;;6.37;2.20;;;9.00;99.90;;;;;;5045734;28;20187;-67
2022/01/28 13:09:53;;;;;;;6.47;1.90;;;9.10;99.90;;;;;;5038070;28;20203;-67
2022/01/28 13:12:31;;;;;;;2.70;1.60;;;9.30;99.90;;;;;;5042741;28;20195;-67
2022/01/28 13:15:12;;;;;;;2.47;1.70;;;9.40;99.90;;;;;;5027657;28;20193;-67
2022/01/28 13:17:53;;;;;;;2.47;1.60;;;9.60;99.90;;;;;;5022338;28;21036;-67
2022/01/28 13:20:21;;;;;;;6.30;1.70;;;9.60;99.90;;;;;;5038919;28;20207;-67
2022/01/28 13:22:53;;;;;;;2.80;1.50;;;9.60;99.90;;;;;;5037710;28;20191;-67
2022/01/28 13:25:24;;;;;;;5.83;1.70;;;9.50;99.90;;;;;;5039700;28;20184;-67
2022/01/28 13:27:58;;;;;;;4.23;1.70;;;9.40;99.90;;;;;;5043573;28;20313;-67
2022/01/28 13:30:28;;;;;;;3.97;1.70;;;9.30;99.90;;;;;;5045090;28;20187;-67
2022/01/28 13:33:07;;;;;;;2.43;1.57;;;9.20;99.90;;;;;;5025498;28;20199;-67
2022/01/28 13:35:36;;;;;;;4.07;1.93;;;9.10;99.90;;;;;;5027770;28;20191;-67
2022/01/28 13:38:14;;;;;;;4.63;1.90;;;9.10;99.90;;;;;;5029789;28;20635;-67
2022/01/28 13:40:41;;;;;;;6.37;1.77;;;9.00;99.90;;;;;;5026405;28;20769;-67
2022/01/28 13:43:10;;;;;;;4.63;1.87;;;9.00;99.90;;;;;;5025833;28;20419;-67
2022/01/28 13:46:05;;;;;;;7.47;1.77;;;9.00;99.90;;;;;;5054042;28;20191;-67
2022/01/28 13:48:39;;;;;;;2.50;1.90;;;9.00;99.90;;;;;;5005108;28;20534;-67
2022/01/28 13:51:19;;;;;;;3.47;1.90;;;8.90;99.90;;;;;;5026325;28;20321;-67
2022/01/28 13:56:42;;;;;;;3.77;2.00;;;8.90;99.90;;;;;;5048259;28;20277;-67
2022/01/28 13:59:14;;;;;;;3.80;1.60;;;8.90;99.90;;;;;;5025753;28;20279;-67
2022/01/28 14:01:47;;;;;;;5.03;2.33;;;8.90;99.90;;;;;;5044734;28;20801;-67
2022/01/28 14:04:27;;;;;;;4.90;2.17;;;8.90;99.90;;;;;;5026639;28;20218;-67
2022/01/28 14:07:30;;;;;;;5.93;2.20;;;8.90;99.90;;;;;;5024407;28;20203;-67
2022/01/28 14:10:00;;;;;;;3.83;2.03;;;8.90;99.90;;;;;;4942763;28;20198;-67
2022/01/28 14:15:32;;;;;;;5.77;2.10;;;9.00;99.90;;;;;;5040991;28;20191;-67
2022/01/28 14:18:02;;;;;;;5.77;2.40;;;9.00;99.90;;;;;;5020170;28;20306;-67
2022/01/28 14:20:30;;;;;;;4.10;2.10;;;9.10;99.90;;;;;;5047111;28;20242;-67
2022/01/28 14:22:58;;;;;;;7.70;2.20;;;9.00;99.90;;;;;;5047573;28;20178;-67
2022/01/28 14:25:25;;;;;;;2.63;2.00;;;9.00;99.90;;;;;;5044798;28;20901;-67
2022/01/28 14:28:13;;;;;;;5.07;2.67;;;8.90;99.90;;;;;;5028150;28;20256;-67
2022/01/28 14:30:42;;;;;;;6.60;2.40;;;8.90;99.90;;;;;;5046927;28;20230;-67
2022/01/28 14:33:11;;;;;;;5.67;2.73;;;8.80;99.90;;;;;;5012294;28;20245;-67
2022/01/28 14:35:40;;;;;;;7.20;4.60;;;8.80;99.90;;;;;;5029417;28;20210;-67
2022/01/28 14:38:08;;;;;;;8.63;4.70;;;8.70;99.90;;;;;;5012388;28;20870;-67
2022/01/28 14:40:35;;;;;;;6.37;4.40;;;8.70;99.90;;;;;;5013551;28;20201;-67
2022/01/28 14:43:02;;;;;;;7.53;3.60;;;8.70;99.90;;;;;;5012432;28;20513;-67
2022/01/28 14:45:30;;;;;;;9.40;2.63;;;8.60;99.90;;;;;;5045119;28;20294;-67
2022/01/28 14:47:56;;;;;;;6.87;2.50;;;8.50;99.90;;;;;;5033685;28;20194;-67
2022/01/28 14:50:23;;;;;;;3.80;2.13;;;8.30;99.90;;;;;;5016427;28;20198;-67
2022/01/28 14:52:49;;;;;;;4.53;1.90;;;8.10;99.90;;;;;;5046249;28;20241;-67
2022/01/28 14:55:16;;;;;;;6.17;2.70;;;7.90;99.90;;;;;;5031783;28;20187;-67
2022/01/28 14:57:42;;;;;;;4.83;2.10;;;7.70;99.90;;;;;;5041912;28;20508;-67
2022/01/28 15:00:10;;;;;;;12.87;2.73;;;7.50;99.90;;;;;;5029601;28;20230;-67
2022/01/28 15:02:39;;;;;;;3.03;1.90;;;7.30;99.90;;;;;;5044579;28;20287;-67
2022/01/28 15:05:06;;;;;;;3.67;2.10;;;7.10;99.90;;;;;;5010791;28;20183;-67
2022/01/28 15:07:33;;;;;;;5.10;2.97;;;7.00;99.90;;;;;;5024389;28;20195;-67
2022/01/28 15:10:01;;;;;;;3.80;3.40;;;7.00;99.90;;;;;;5043180;28;20186;-67
2022/01/28 15:12:31;;;;;;;5.13;2.63;;;6.90;99.90;;;;;;5026575;28;20226;-66
2022/01/28 15:14:58;;;;;;;4.53;2.10;;;7.00;99.90;;;;;;5028192;28;20194;-66